Flight Track Log - Related Links

Times and Time Zones

All times are in EDT time to prevent confusion due to time zone crossing. See the N547XJ flight status page for this flight to view local times or setup timezone preferences in your user account.

Time Position Orientation Groundspeed Altitude Reporting Facility
EDT Latitude Longitude Course Direction KTS MPH feet Rate Location/Type
Tue 07:34:35 AM 40.9000 -74.0500 282° West 226 260 2,800  Level New York TRACON
Tue 07:35:41 AM 40.9167 -74.1500 282° West 272 313 5,700 1,600 Climbing New York TRACON
Tue 07:36:35 AM 40.9333 -74.2333 285° West 275 316 6,000 1,150 Climbing New York TRACON
Tue 07:37:41 AM 40.9167 -74.3500 259° West 283 326 8,000 2,182 Climbing New York TRACON
Tue 07:38:03 AM 40.9125 -74.3844 261° West 286 329 9,200 2,747 Climbing New York Center
Tue 07:39:04 AM 40.8967 -74.4936 259° West 323 372 11,800 3,000 Climbing New York Center
Tue 07:40:05 AM 40.8778 -74.6242 259° West 368 423 15,300 2,622 Climbing New York Center
Tue 07:41:03 AM 40.8569 -74.7547 258° West 389 448 17,000 1,729 Climbing New York Center
Tue 07:42:03 AM 40.8400 -74.8797 260° West 389 448 18,700 2,400 Climbing New York Center
Tue 07:43:03 AM 40.8208 -75.0131 259° West 384 442 21,800 2,876 Climbing New York Center
Tue 07:44:04 AM 40.8039 -75.1381 260° West 371 427 24,500 2,380 Climbing New York Center
Tue 07:45:04 AM 40.7775 -75.2844 257° West 371 427 26,600 1,613 Climbing New York Center
Tue 07:46:03 AM 40.7492 -75.4250 255° West 382 440 27,700 1,150 Climbing New York Center
Tue 07:47:04 AM 40.7089 -75.5428 246° West 394 453 28,900 1,550 Climbing New York Center
Tue 07:48:03 AM 40.6528 -75.6894 243° Southwest 414 476 30,800 1,736 Climbing New York Center
Tue 07:49:05 AM 40.6036 -75.8225 244° Southwest 414 476 32,400 1,700 Climbing New York Center
Tue 07:50:03 AM 40.5500 -75.9525 242° Southwest 408 470 34,200 1,815 Climbing New York Center
Tue 07:51:04 AM 40.5028 -76.0744 243° Southwest 397 457 36,000 1,377 Climbing New York Center
Tue 07:52:05 AM 40.4533 -76.1989 242° Southwest 392 451 37,000 756 Climbing New York Center
Tue 07:53:03 AM 40.4036 -76.3283 243° Southwest 392 451 37,500 508 Climbing New York Center
Tue 07:54:03 AM 40.3536 -76.4581 243° Southwest 397 457 38,000 590 Climbing New York Center
Tue 07:55:05 AM 40.3033 -76.5928 244° Southwest 402 463 38,700 639 Climbing New York Center
Tue 07:56:05 AM 40.2472 -76.7186 240° Southwest 402 463 39,300 559 Climbing New York Center
Tue 07:57:03 AM 40.1922 -76.8525 242° Southwest 407 468 39,800 504 Climbing New York Center
Tue 07:58:04 AM 40.1414 -76.9919 245° Southwest 420 483 40,300 488 Climbing New York Center
Tue 07:59:06 AM 40.0933 -77.1069 241° Southwest 420 483 40,800 504 Climbing New York Center
Tue 08:00:03 AM 40.0406 -77.2378 242° Southwest 420 483 41,300 511 Climbing New York Center
Tue 08:02:02 AM 39.9592 -77.5142 249° West 403 464 42,300 503 Climbing Cleveland Center
Tue 08:03:02 AM 39.9653 -77.6658 273° West 408 470 42,800 350 Climbing Cleveland Center
Tue 08:04:02 AM 39.9689 -77.8172 272° West 414 476 43,000 100 Climbing Cleveland Center
Tue 08:05:02 AM 39.9725 -77.9689 272° West 421 484 43,000  Level Cleveland Center
Tue 08:06:02 AM 39.9781 -78.1231 273° West 421 484 43,000  Level Cleveland Center
Tue 08:07:02 AM 39.9814 -78.2772 272° West 421 484 43,000  Level Cleveland Center
Tue 08:08:02 AM 39.9822 -78.4372 270° West 427 491 43,000  Level Cleveland Center
Tue 08:09:02 AM 39.9853 -78.5969 271° West 438 504 43,000  Level Cleveland Center
Tue 08:10:02 AM 39.9900 -78.7514 272° West 438 504 43,000  Level Cleveland Center
Tue 08:11:02 AM 39.9944 -78.9083 272° West 438 504 43,000  Level Cleveland Center
Tue 08:12:02 AM 39.9986 -79.0681 272° West 438 504 43,000  Level Cleveland Center
Tue 08:13:02 AM 40.0008 -79.2389 271° West 438 504 43,000  Level Cleveland Center
Tue 08:14:02 AM 40.0047 -79.3986 272° West 438 504 43,000 50 Level Cleveland Center
Tue 08:15:02 AM 40.0064 -79.5586 271° West 443 510 43,100 150 Climbing Cleveland Center
Tue 08:16:02 AM 40.0097 -79.7211 272° West 443 510 43,300 200 Climbing Cleveland Center
Tue 08:17:02 AM 40.0128 -79.8811 271° West 443 510 43,500 198 Climbing Cleveland Center
Tue 08:18:03 AM 40.0136 -80.0356 270° West 436 502 43,700 200 Climbing Cleveland Center
Tue 08:19:02 AM 40.0164 -80.1928 271° West 436 502 43,900 202 Climbing Cleveland Center
Tue 08:20:02 AM 40.0147 -80.3528 269° West 436 502 44,100 200 Climbing Cleveland Center
Tue 08:21:02 AM 40.0172 -80.5072 271° West 436 502 44,300 200 Climbing Cleveland Center
Tue 08:22:02 AM 40.0192 -80.6644 271° West 436 502 44,500 200 Climbing Cleveland Center
Tue 08:23:02 AM 40.0189 -80.8189 270° West 436 502 44,700 200 Climbing Cleveland Center
Tue 08:24:02 AM 40.0186 -80.9733 270° West 436 502 44,900 138 Climbing Cleveland Center
Tue 08:25:12 AM 40.0117 -81.1278 267° West 421 484 45,000 46 Climbing Indianapolis Center
Tue 08:26:13 AM 40.0094 -81.2819 269° West 421 484 45,000  Level Indianapolis Center
Tue 08:27:15 AM 40.0053 -81.4622 268° West 421 484 45,000  Level Indianapolis Center
Tue 08:28:17 AM 40.0031 -81.6167 269° West 422 486 45,000  Level Indianapolis Center
Tue 08:29:18 AM 40.0003 -81.7706 269° West 421 484 45,000  Level Indianapolis Center
Tue 08:30:20 AM 39.9961 -81.9175 268° West 422 486 45,000  Level Indianapolis Center
Tue 08:31:22 AM 39.9933 -82.0706 269° West 420 483 45,000  Level Indianapolis Center
Tue 08:32:23 AM 39.9886 -82.2239 268° West 420 483 45,000  Level Indianapolis Center
Tue 08:33:25 AM 39.9850 -82.3775 268° West 420 483 45,000  Level Indianapolis Center
Tue 08:34:26 AM 39.9814 -82.5308 268° West 419 482 45,000  Level Indianapolis Center
Tue 08:35:28 AM 39.9761 -82.7100 268° West 422 486 45,000  Level Indianapolis Center
Tue 08:36:30 AM 39.9711 -82.8617 268° West 418 481 45,000  Level Indianapolis Center
Tue 08:37:31 AM 39.9667 -83.0133 268° West 416 479 45,000  Level Indianapolis Center
Tue 08:38:33 AM 39.9633 -83.1647 268° West 417 480 45,000  Level Indianapolis Center
Tue 08:39:35 AM 39.9592 -83.3144 268° West 413 475 45,000  Level Indianapolis Center
Tue 08:40:36 AM 39.9533 -83.4594 267° West 414 476 45,000  Level Indianapolis Center
Tue 08:41:38 AM 39.9469 -83.6339 267° West 413 475 45,000  Level Indianapolis Center
Tue 08:42:40 AM 39.9419 -83.7803 267° West 406 467 45,000  Level Indianapolis Center
Tue 08:43:41 AM 39.9367 -83.9269 267° West 403 464 45,000  Level Indianapolis Center
Tue 08:44:43 AM 39.9306 -84.0708 267° West 397 457 45,000  Level Indianapolis Center
Tue 08:45:45 AM 39.9256 -84.2144 267° West 393 452 45,000  Level Indianapolis Center
Tue 08:46:46 AM 39.9194 -84.3556 267° West 389 448 45,000  Level Indianapolis Center
Tue 08:47:48 AM 39.9139 -84.4975 267° West 389 448 45,000  Level Indianapolis Center
Tue 08:48:50 AM 39.9058 -84.6386 266° West 389 448 45,000 -49 Level Indianapolis Center
Tue 08:49:51 AM 39.8997 -84.7808 267° West 389 448 44,900  Descending Indianapolis Center
Tue 08:50:53 AM 39.8908 -84.9475 266° West 392 451 45,000 48 Climbing Indianapolis Center
Tue 08:51:55 AM 39.8839 -85.0903 266° West 392 451 45,000  Level Indianapolis Center
Tue 08:52:56 AM 39.8775 -85.2333 267° West 392 451 45,000  Level Indianapolis Center
Tue 08:53:58 AM 39.8694 -85.3767 266° West 394 453 45,000  Level Indianapolis Center
Tue 08:55:00 AM 39.8628 -85.5208 267° West 395 455 45,000  Level Indianapolis Center
Tue 08:56:01 AM 39.8533 -85.6669 265° West 399 459 45,000  Level Indianapolis Center
Tue 08:57:03 AM 39.8467 -85.8133 267° West 402 463 45,000  Level Indianapolis Center
Tue 08:58:05 AM 39.8389 -85.9522 266° West 402 463 45,000  Level Indianapolis Center
Tue 08:59:06 AM 39.8289 -86.1261 266° West 402 463 45,000  Level Indianapolis Center
Tue 09:00:08 AM 39.8189 -86.2725 265° West 404 465 45,000  Level Indianapolis Center
Tue 09:01:10 AM 39.8142 -86.4192 268° West 406 467 45,000  Level Indianapolis Center
Tue 09:02:12 AM 39.8189 -86.5672 272° West 408 470 45,000  Level Indianapolis Center
Tue 09:03:13 AM 39.8206 -86.7136 271° West 406 467 45,000  Level Indianapolis Center
Tue 09:04:15 AM 39.8247 -86.8603 272° West 406 467 45,000  Level Indianapolis Center
Tue 09:05:17 AM 39.8264 -87.0050 271° West 402 463 45,000  Level Indianapolis Center
Tue 09:06:18 AM 39.8283 -87.1531 271° West 407 468 45,000  Level Indianapolis Center
Tue 09:07:20 AM 39.8314 -87.3272 271° West 402 463 45,000  Level Indianapolis Center
Tue 09:08:22 AM 39.8331 -87.4719 271° West 401 461 45,000  Level Indianapolis Center
Tue 09:09:24 AM 39.8356 -87.6172 271° West 401 461 45,000  Level Indianapolis Center
Tue 09:10:25 AM 39.8367 -87.7625 271° West 401 461 45,000  Level Indianapolis Center
Tue 09:11:27 AM 39.8378 -87.9075 271° West 402 463 45,000  Level Indianapolis Center
Tue 09:12:29 AM 39.8397 -88.0536 271° West 402 463 45,000  Level Indianapolis Center
Tue 09:13:31 AM 39.8403 -88.1986 270° West 401 461 45,000  Level Indianapolis Center
Tue 09:14:32 AM 39.8408 -88.3428 270° West 401 461 45,000  Level Indianapolis Center
Tue 09:15:34 AM 39.8422 -88.5150 271° West 399 459 45,000  Level Indianapolis Center
Tue 09:16:36 AM 39.8419 -88.6600 270° West 399 459 45,000  Level Indianapolis Center
Tue 09:17:38 AM 39.8419 -88.8036 270° West 398 458 45,000  Level Indianapolis Center
Tue 09:18:40 AM 39.8419 -88.9464 270° West 396 456 45,000  Level Indianapolis Center
Tue 09:19:41 AM 39.8425 -89.0894 270° West 396 456 45,000  Level Indianapolis Center
Tue 09:20:43 AM 39.8433 -89.2314 270° West 394 453 45,000  Level Indianapolis Center
Tue 09:21:45 AM 39.8428 -89.3756 270° West 395 455 45,000  Level Indianapolis Center
Tue 09:22:45 AM 39.8400 -89.5167 269° West 396 456 45,000  Level Kansas City Center
Tue 09:23:46 AM 39.8392 -89.6603 270° West 396 456 45,000  Level Kansas City Center
Tue 09:24:47 AM 39.8278 -89.8053 264° West 401 461 45,000  Level Kansas City Center
Tue 09:25:48 AM 39.8133 -89.9769 264° West 398 458 45,000  Level Kansas City Center
Tue 09:26:52 AM 39.8003 -90.1189 263° West 396 456 45,000  Level Kansas City Center
Tue 09:27:53 AM 39.7875 -90.2614 263° West 396 456 45,000  Level Kansas City Center
Tue 09:28:53 AM 39.7747 -90.4044 263° West 396 456 45,000  Level Kansas City Center
Tue 09:29:57 AM 39.7614 -90.5467 263° West 397 457 45,000  Level Kansas City Center
Tue 09:30:57 AM 39.7464 -90.6939 262° West 392 451 45,000  Level Kansas City Center
Tue 09:31:59 AM 39.7331 -90.8350 263° West 394 453 45,000  Level Kansas City Center
Tue 09:32:58 AM 39.7200 -90.9753 263° West 394 453 45,000  Level Kansas City Center
Tue 09:34:00 AM 39.7053 -91.1153 262° West 394 453 45,000  Level Kansas City Center
Tue 09:35:03 AM 39.6914 -91.2550 263° West 394 453 45,000  Level Kansas City Center
Tue 09:36:05 AM 39.6753 -91.4169 263° West 392 451 45,000  Level Kansas City Center
Tue 09:37:06 AM 39.6611 -91.5556 262° West 390 449 45,000  Level Kansas City Center
Tue 09:38:07 AM 39.6469 -91.6939 262° West 390 449 45,000  Level Kansas City Center
Tue 09:39:08 AM 39.6311 -91.8325 262° West 390 449 45,000  Level Kansas City Center
Tue 09:40:09 AM 39.6175 -91.9681 263° West 384 442 45,000  Level Kansas City Center
Tue 09:41:10 AM 39.6039 -92.1017 263° West 379 436 45,000  Level Kansas City Center
Tue 09:42:13 AM 39.5889 -92.2381 262° West 381 438 45,000  Level Kansas City Center
Tue 09:43:14 AM 39.5736 -92.3753 262° West 384 442 45,000  Level Kansas City Center
Tue 09:44:16 AM 39.5544 -92.5364 261° West 380 437 45,000  Level Kansas City Center
Tue 09:45:18 AM 39.5403 -92.6717 262° West 379 436 45,000  Level Kansas City Center
Tue 09:46:19 AM 39.5239 -92.8092 261° West 383 441 45,000  Level Kansas City Center
Tue 09:47:19 AM 39.5081 -92.9425 261° West 381 438 45,000  Level Kansas City Center
Tue 09:48:20 AM 39.4931 -93.0744 262° West 376 433 45,000  Level Kansas City Center
Tue 09:49:22 AM 39.4778 -93.2069 262° West 374 430 45,000  Level Kansas City Center
Tue 09:50:25 AM 39.4617 -93.3383 261° West 371 427 45,000  Level Kansas City Center
Tue 09:51:26 AM 39.4464 -93.4714 262° West 374 430 45,000  Level Kansas City Center
Tue 09:52:26 AM 39.4272 -93.6283 261° West 371 427 45,000  Level Kansas City Center
Tue 09:53:30 AM 39.4100 -93.7619 261° West 371 427 45,000  Level Kansas City Center
Tue 09:54:31 AM 39.3939 -93.8889 261° West 376 433 45,000  Level Kansas City Center
Tue 09:55:32 AM 39.3753 -94.0386 261° West 378 435 45,000  Level Kansas City Center
Tue 09:56:33 AM 39.3594 -94.1667 261° West 378 435 45,000  Level Kansas City Center
Tue 09:57:34 AM 39.3431 -94.2928 261° West 374 430 45,000  Level Kansas City Center
Tue 09:58:35 AM 39.3242 -94.4411 261° West 375 432 45,000  Level Kansas City Center
Tue 09:59:39 AM 39.3083 -94.5681 261° West 374 430 45,000  Level Kansas City Center
Tue 10:00:39 AM 39.2875 -94.7153 260° West 373 429 45,000  Level Kansas City Center
Tue 10:01:39 AM 39.2725 -94.8422 261° West 373 429 45,000  Level Kansas City Center
Tue 10:02:43 AM 39.2586 -94.9694 262° West 374 430 45,000  Level Kansas City Center
Tue 10:03:44 AM 39.2406 -95.1289 262° West 378 435 45,000  Level Kansas City Center
Tue 10:04:44 AM 39.2247 -95.2628 261° West 379 436 45,000  Level Kansas City Center
Tue 10:05:45 AM 39.2094 -95.3969 262° West 378 435 45,000  Level Kansas City Center
Tue 10:06:49 AM 39.1933 -95.5356 262° West 377 434 45,000  Level Kansas City Center
Tue 10:07:49 AM 39.1781 -95.6622 261° West 375 432 45,000  Level Kansas City Center
Tue 10:08:52 AM 39.1631 -95.7886 261° West 373 429 45,000  Level Kansas City Center
Tue 10:09:53 AM 39.1444 -95.9369 261° West 370 426 45,000  Level Kansas City Center
Tue 10:10:55 AM 39.1281 -96.0647 261° West 376 433 45,000  Level Kansas City Center
Tue 10:11:54 AM 39.1094 -96.2131 261° West 377 434 45,000  Level Kansas City Center
Tue 10:12:56 AM 39.0936 -96.3394 261° West 375 432 45,000  Level Kansas City Center
Tue 10:13:57 AM 39.0783 -96.4661 261° West 374 430 45,000  Level Kansas City Center
Tue 10:15:01 AM 39.0572 -96.6106 259° West 369 425 45,000  Level Kansas City Center
Tue 10:16:01 AM 39.0414 -96.7386 261° West 375 432 45,000  Level Kansas City Center
Tue 10:17:02 AM 39.0222 -96.8867 261° West 376 433 45,000  Level Kansas City Center
Tue 10:18:05 AM 39.0056 -97.0139 260° West 377 434 45,000  Level Kansas City Center
Tue 10:19:07 AM 38.9861 -97.1594 260° West 372 428 45,000  Level Kansas City Center
Tue 10:20:07 AM 38.9733 -97.2739 262° West 375 432 45,000  Level Kansas City Center
Tue 10:21:07 AM 38.9550 -97.4058 260° West 375 432 45,000  Level Kansas City Center
Tue 10:22:11 AM 38.9350 -97.5592 261° West 372 428 45,000  Level Kansas City Center
Tue 10:23:12 AM 38.9178 -97.6842 260° West 372 428 45,000  Level Kansas City Center
Tue 10:24:13 AM 38.8992 -97.8358 261° West 378 435 45,000 -197 Level Kansas City Center
Tue 10:25:14 AM 38.8842 -97.9597 261° West 381 438 44,600 -488 Descending Kansas City Center
Tue 10:26:16 AM 38.8678 -98.0947 261° West 385 443 44,000 -720 Descending Kansas City Center
Tue 10:27:19 AM 38.8500 -98.2306 261° West 388 447 43,100 -484 Descending Kansas City Center
Tue 10:28:20 AM 38.8328 -98.3664 261° West 388 447 43,000 -49 Descending Kansas City Center
Tue 10:29:21 AM 38.8161 -98.5031 261° West 389 448 43,000  Level Kansas City Center
Tue 10:30:24 AM 38.7950 -98.6656 261° West 387 445 43,000  Level Kansas City Center
Tue 10:31:24 AM 38.7769 -98.8011 260° West 386 444 43,000  Level Kansas City Center
Tue 10:32:27 AM 38.7592 -98.9361 260° West 386 444 43,000  Level Kansas City Center
Tue 10:33:27 AM 38.7411 -99.0711 260° West 386 444 43,000  Level Kansas City Center
Tue 10:34:29 AM 38.7225 -99.2072 260° West 387 445 43,000  Level Kansas City Center
Tue 10:35:29 AM 38.7033 -99.3444 260° West 390 449 43,000  Level Kansas City Center
Tue 10:36:11 AM 38.6892 -99.4514 260° West 386 444 43,000  Level Denver Center
Tue 10:37:13 AM 38.6714 -99.5828 260° West 390 449 43,000  Level Denver Center
Tue 10:38:15 AM 38.6503 -99.7328 260° West 387 445 43,000  Level Denver Center
Tue 10:39:17 AM 38.6319 -99.8619 260° West 386 444 43,000  Level Denver Center
Tue 10:40:18 AM 38.6108 -100.0094 260° West 380 437 43,000  Level Denver Center
Tue 10:41:20 AM 38.5928 -100.1383 260° West 383 441 43,000  Level Denver Center
Tue 10:42:22 AM 38.5708 -100.2881 259° West 385 443 43,000  Level Denver Center
Tue 10:43:24 AM 38.5519 -100.4142 259° West 381 438 43,000  Level Denver Center
Tue 10:44:26 AM 38.5306 -100.5631 260° West 382 440 43,000  Level Denver Center
Tue 10:45:28 AM 38.5117 -100.6908 259° West 383 441 43,000  Level Denver Center
Tue 10:46:30 AM 38.4900 -100.8414 260° West 388 447 43,000  Level Denver Center
Tue 10:47:32 AM 38.4706 -100.9669 259° West 380 437 43,000  Level Denver Center
Tue 10:48:34 AM 38.4483 -101.1144 259° West 380 437 43,000  Level Denver Center
Tue 10:49:35 AM 38.4281 -101.2431 259° West 388 447 43,000  Level Denver Center
Tue 10:50:37 AM 38.4053 -101.3908 259° West 383 441 43,000  Level Denver Center
Tue 10:51:39 AM 38.3861 -101.5172 259° West 382 440 43,000  Level Denver Center
Tue 10:52:41 AM 38.3631 -101.6658 259° West 384 442 43,000  Level Denver Center
Tue 10:53:43 AM 38.3428 -101.7925 259° West 382 440 43,000  Level Denver Center
Tue 10:54:45 AM 38.3225 -101.9203 259° West 385 443 43,000  Level Denver Center
Tue 10:55:47 AM 38.2986 -102.0689 258° West 386 444 43,000  Level Denver Center
Tue 10:56:49 AM 38.2792 -102.1975 259° West 388 447 43,000  Level Denver Center
Tue 10:57:51 AM 38.2528 -102.3472 257° West 389 448 43,000  Level Denver Center
Tue 10:58:53 AM 38.2317 -102.4761 258° West 389 448 43,000  Level Denver Center
Tue 10:59:55 AM 38.2075 -102.6250 258° West 388 447 43,000  Level Denver Center
Tue 11:00:57 AM 38.1814 -102.7514 255° West 388 447 43,000  Level Denver Center
Tue 11:01:59 AM 38.1428 -102.8961 251° West 388 447 43,000  Level Denver Center
Tue 11:03:01 AM 38.1125 -103.0192 253° West 385 443 43,000  Level Denver Center
Tue 11:04:03 AM 38.0761 -103.1597 252° West 391 450 43,000  Level Denver Center
Tue 11:05:05 AM 38.0431 -103.2833 251° West 390 449 43,000  Level Denver Center
Tue 11:06:07 AM 38.0053 -103.4300 252° West 391 450 43,000  Level Denver Center
Tue 11:07:10 AM 37.9725 -103.5544 252° West 392 451 43,000  Level Denver Center
Tue 11:08:11 AM 37.9336 -103.6997 251° West 391 450 43,000  Level Denver Center
Tue 11:09:13 AM 37.9008 -103.8253 252° West 393 452 43,000  Level Denver Center
Tue 11:10:15 AM 37.8617 -103.9708 251° West 393 452 43,000  Level Denver Center
Tue 11:11:17 AM 37.8275 -104.0964 251° West 397 457 43,000  Level Denver Center
Tue 11:12:19 AM 37.7872 -104.2411 251° West 395 455 43,000  Level Denver Center
Tue 11:13:21 AM 37.7542 -104.3672 252° West 398 458 43,000  Level Denver Center
Tue 11:14:23 AM 37.7144 -104.5119 251° West 391 450 43,000  Level Denver Center
Tue 11:15:25 AM 37.6808 -104.6350 251° West 390 449 43,000  Level Denver Center
Tue 11:16:28 AM 37.6417 -104.7783 251° West 387 445 43,000  Level Denver Center
Tue 11:17:30 AM 37.6067 -104.9008 250° West 388 447 43,000  Level Denver Center
Tue 11:18:32 AM 37.5669 -105.0453 251° West 390 449 43,000  Level Denver Center
Tue 11:19:34 AM 37.5297 -105.1806 251° West 386 444 43,000  Level Denver Center
Tue 11:20:36 AM 37.4944 -105.3000 250° West 382 440 43,000  Level Denver Center
Tue 11:21:38 AM 37.4550 -105.4408 251° West 380 437 43,000  Level Denver Center
Tue 11:22:40 AM 37.4214 -105.5603 251° West 378 435 43,000  Level Denver Center
Tue 11:23:42 AM 37.3822 -105.6992 250° West 378 435 43,000  Level Denver Center
Tue 11:24:44 AM 37.3478 -105.8175 250° West 377 434 43,000  Level Denver Center
Tue 11:25:46 AM 37.3114 -105.9589 252° West 380 437 43,000  Level Denver Center
Tue 11:26:48 AM 37.2806 -106.0794 252° West 380 437 43,000  Level Denver Center
Tue 11:27:50 AM 37.2439 -106.2203 252° West 380 437 43,000  Level Denver Center
Tue 11:28:52 AM 37.2128 -106.3422 252° West 382 440 43,000  Level Denver Center
Tue 11:29:54 AM 37.1825 -106.4653 253° West 385 443 43,000  Level Denver Center
Tue 11:30:56 AM 37.1453 -106.6081 252° West 387 445 43,000  Level Denver Center
Tue 11:31:58 AM 37.1144 -106.7303 252° West 386 444 43,000  Level Denver Center
Tue 11:33:00 AM 37.0767 -106.8703 251° West 382 440 43,000  Level Denver Center
Tue 11:34:02 AM 37.0456 -106.9914 252° West 382 440 43,000  Level Denver Center
Tue 11:35:05 AM 37.0092 -107.1322 252° West 381 438 43,000  Level Denver Center
Tue 11:36:07 AM 36.9761 -107.2542 251° West 387 445 43,000  Level Denver Center
Tue 11:37:09 AM 36.9386 -107.3969 252° West 388 447 43,000  Level Denver Center
Tue 11:38:11 AM 36.9053 -107.5161 251° West 383 441 43,000  Level Denver Center
Tue 11:39:13 AM 36.8672 -107.6581 252° West 386 444 43,000  Level Denver Center
Tue 11:40:15 AM 36.8344 -107.7794 251° West 386 444 43,000  Level Denver Center
Tue 11:41:17 AM 36.7958 -107.9211 251° West 386 444 43,000  Level Denver Center
Tue 11:42:19 AM 36.7628 -108.0442 251° West 389 448 43,000  Level Denver Center
Tue 11:43:21 AM 36.7306 -108.1897 255° West 389 448 43,000  Level Denver Center
Tue 11:44:23 AM 36.7086 -108.3172 258° West 393 452 43,000  Level Denver Center
Tue 11:45:25 AM 36.6806 -108.4639 257° West 391 450 43,000  Level Denver Center
Tue 11:46:27 AM 36.6575 -108.5908 257° West 393 452 43,000  Level Denver Center
Tue 11:47:29 AM 36.6292 -108.7389 257° West 396 456 43,000  Level Denver Center
Tue 11:48:31 AM 36.6053 -108.8656 257° West 395 455 43,000  Level Denver Center
Tue 11:49:33 AM 36.5761 -109.0128 256° West 395 455 43,000  Level Denver Center
Tue 11:50:35 AM 36.5517 -109.1419 257° West 401 461 43,000  Level Denver Center
Tue 11:51:37 AM 36.5228 -109.2903 256° West 399 459 43,000  Level Denver Center
Tue 11:52:39 AM 36.4986 -109.4178 257° West 398 458 43,000  Level Denver Center
Tue 11:53:42 AM 36.4692 -109.5664 256° West 399 459 43,000  Level Denver Center
Tue 11:54:44 AM 36.4439 -109.6933 256° West 397 457 43,000  Level Denver Center
Tue 11:55:46 AM 36.4150 -109.8397 256° West 393 452 43,000  Level Denver Center
Tue 11:56:48 AM 36.3908 -109.9647 257° West 391 450 43,000  Level Denver Center
Tue 11:57:50 AM 36.3608 -110.1136 256° West 396 456 43,000  Level Denver Center
Tue 11:58:52 AM 36.3342 -110.2408 255° West 399 459 43,000  Level Denver Center
Tue 11:59:54 AM 36.3083 -110.3733 256° West 397 457 43,000  Level Denver Center
Tue 12:00:56 PM 36.2811 -110.5061 256° West 397 457 43,000  Level Denver Center
Tue 12:01:58 PM 36.2531 -110.6381 255° West 396 456 43,000  Level Denver Center
Tue 12:03:00 PM 36.2186 -110.7981 255° West 399 459 43,000  Level Denver Center
Tue 12:04:02 PM 36.1917 -110.9303 256° West 398 458 43,000  Level Denver Center
Tue 12:05:04 PM 36.1633 -111.0639 255° West 401 461 43,000  Level Denver Center
Tue 12:06:06 PM 36.1350 -111.1978 255° West 403 464 43,000  Level Denver Center
Tue 12:07:08 PM 36.1067 -111.3328 255° West 405 466 43,000  Level Denver Center
Tue 12:08:10 PM 36.0792 -111.4681 256° West 406 467 43,000  Level Denver Center
Tue 12:09:13 PM 36.0447 -111.6319 255° West 410 472 43,000  Level Denver Center
Tue 12:10:15 PM 36.0161 -111.7675 255° West 409 471 43,000  Level Denver Center
Tue 12:11:17 PM 35.9861 -111.9025 255° West 408 470 43,000  Level Denver Center
Tue 12:11:40 PM 35.9744 -111.9564 255° West 409 471 43,000  Level Los Angeles Center
Tue 12:12:42 PM 35.9450 -112.0953 255° West 409 471 43,000  Level Los Angeles Center
Tue 12:13:44 PM 35.9169 -112.2250 255° West 407 468 43,000  Level Los Angeles Center
Tue 12:14:46 PM 35.8881 -112.3597 255° West 409 471 43,000  Level Los Angeles Center
Tue 12:15:48 PM 35.8531 -112.5208 255° West 408 470 43,000  Level Los Angeles Center
Tue 12:16:51 PM 35.8239 -112.6558 255° West 410 472 43,000  Level Los Angeles Center
Tue 12:17:52 PM 35.8000 -112.7639 255° West 412 474 43,000  Level Los Angeles Center
Tue 12:18:55 PM 35.7647 -112.9236 255° West 410 472 43,000  Level Los Angeles Center
Tue 12:19:57 PM 35.7286 -113.0825 254° West 408 470 43,000  Level Los Angeles Center
Tue 12:20:59 PM 35.6986 -113.2156 255° West 409 471 43,000  Level Los Angeles Center
Tue 12:22:01 PM 35.6686 -113.3483 254° West 409 471 43,000  Level Los Angeles Center
Tue 12:23:03 PM 35.6386 -113.4828 255° West 411 473 43,000  Level Los Angeles Center
Tue 12:24:05 PM 35.6056 -113.6175 253° West 413 475 43,000  Level Los Angeles Center
Tue 12:25:07 PM 35.5617 -113.7756 251° West 410 472 43,000 -49 Level Los Angeles Center
Tue 12:26:08 PM 35.5250 -113.9089 251° West 414 476 42,900 -732 Descending Los Angeles Center
Tue 12:27:10 PM 35.4903 -114.0397 252° West 407 468 41,500 -1,597 Descending Los Angeles Center
Tue 12:28:12 PM 35.4544 -114.1678 251° West 401 461 39,600 -1,887 Descending Los Angeles Center
Tue 12:29:14 PM 35.4153 -114.3089 251° West 385 443 37,600 -1,839 Descending Los Angeles Center
Tue 12:30:16 PM 35.3828 -114.4286 252° West 373 429 35,800 -1,694 Descending Los Angeles Center
Tue 12:31:18 PM 35.3469 -114.5508 250° West 377 434 34,100 -871 Descending Los Angeles Center
Tue 12:32:20 PM 35.3119 -114.6806 252° West 394 453 34,000 -48 Descending Los Angeles Center
Tue 12:33:22 PM 35.2736 -114.8150 251° West 413 475 34,000  Level Los Angeles Center
Tue 12:34:24 PM 35.2361 -114.9508 251° West 421 484 34,000  Level Los Angeles Center
Tue 12:35:26 PM 35.1892 -115.1153 251° West 424 488 34,000  Level Los Angeles Center
Tue 12:36:28 PM 35.1517 -115.2503 251° West 421 484 34,000  Level Los Angeles Center
Tue 12:37:30 PM 35.1178 -115.3675 251° West 418 481 34,000  Level Los Angeles Center
Tue 12:38:32 PM 35.0722 -115.5286 251° West 419 482 34,000 -48 Level Los Angeles Center
Tue 12:39:34 PM 35.0322 -115.6636 250° West 421 484 33,900 -1,065 Descending Los Angeles Center
Tue 12:40:36 PM 34.9936 -115.7997 251° West 424 488 31,800 -2,129 Descending Los Angeles Center
Tue 12:41:38 PM 34.9517 -115.9414 250° West 437 503 29,500 -2,226 Descending Los Angeles Center
Tue 12:42:40 PM 34.9106 -116.0814 250° West 441 507 27,200 -2,226 Descending Los Angeles Center
Tue 12:43:42 PM 34.8694 -116.2172 250° West 433 498 24,900 -1,790 Descending Los Angeles Center
Tue 12:44:44 PM 34.8317 -116.3475 251° West 417 480 23,500 -1,161 Descending Los Angeles Center
Tue 12:45:46 PM 34.7928 -116.4964 252° West 390 449 22,500 -871 Descending Los Angeles Center
Tue 12:46:48 PM 34.7814 -116.6286 264° West 393 452 21,700 -774 Descending Los Angeles Center
Tue 12:47:50 PM 34.7689 -116.7586 263° West 389 448 20,900 -774 Descending Los Angeles Center
Tue 12:48:52 PM 34.7556 -116.8919 263° West 395 455 20,100 -823 Descending Los Angeles Center
Tue 12:49:54 PM 34.7411 -117.0225 262° West 391 450 19,200 -823 Descending Los Angeles Center
Tue 12:50:56 PM 34.7286 -117.1494 263° West 380 437 18,400 -823 Descending Los Angeles Center
Tue 12:51:58 PM 34.7128 -117.2961 263° West 366 421 17,500 -768 Descending Los Angeles Center
Tue 12:53:01 PM 34.6994 -117.4186 262° West 364 419 16,800 -720 Descending Los Angeles Center
Tue 12:54:03 PM 34.6864 -117.5419 263° West 365 420 16,000 -968 Descending Los Angeles Center
Tue 12:55:05 PM 34.6694 -117.6678 261° West 374 430 14,800 -1,210 Descending Los Angeles Center
Tue 12:56:07 PM 34.6500 -117.7950 260° West 381 438 13,500 -1,258 Descending Los Angeles Center
Tue 12:57:09 PM 34.6319 -117.9233 260° West 383 441 12,200 -1,210 Descending Los Angeles Center
Tue 12:58:11 PM 34.6164 -118.0336 260° West 330 380 11,000 -1,258 Descending Los Angeles Center
Tue 12:59:13 PM 34.5967 -118.1592 259° West 310 357 9,600 -1,113 Descending Los Angeles Center
Tue 01:00:15 PM 34.5836 -118.2467 260° West 305 351 8,700 -726 Descending Los Angeles Center
Tue 01:01:17 PM 34.5650 -118.3619 259° West 292 336 8,100 -336 Descending Los Angeles Center
Tue 01:02:20 PM 34.5444 -118.4522 255° West 280 322 8,000 -768 Descending Los Angeles Center
Tue 01:03:22 PM 34.4964 -118.5092 224° Southwest 263 303 6,500 -1,016 Descending Los Angeles Center
Tue 01:04:24 PM 34.4253 -118.5150 184° South 249 287 5,900 -823 Descending Los Angeles Center
Tue 01:05:26 PM 34.3708 -118.5069 173° South 199 229 4,800 -1,319 Descending Los Angeles Center
Tue 01:05:55 PM 34.3333 -118.5000 171° South 193 222 3,900 -1,483 Descending Southern California TRACON
Tue 01:06:55 PM 34.2833 -118.5000 180° South 180 207 2,600 -1,158 Descending Southern California TRACON
Tue 01:07:49 PM 34.2500 -118.5000 180° South 138 159 1,700 -1,000 Descending Southern California TRACON
Tue 01:10:00 PM 34.2098 -118.4900 180° South  Level Estimated
Tue 01:17:00 PM 34.2098 -118.4900 180° South  Level Estimated

Login

Don't have an account? Register now (free) for customized features, flight alerts, and more!